Time;durP1;ratioP1;P1;durP2;ratioP2;P2;SDS_P1;SDS_P2;PMS_P1;PMS_P2;Temp;Humidity;BMP_temperature;BMP_pressure;BME280_temperature;BME280_humidity;BME280_pressure;Samples;Min_cycle;Max_cycle;Signal;HPM_P1;HPM_P2
2022/01/31 00:01:01;;;;;;;16.13;4.47;;;;;;;;;;5053628;28;20043;-83
2022/01/31 00:03:26;;;;;;;17.15;3.47;;;;;;;;;;5058498;28;20170;-81
2022/01/31 00:05:52;;;;;;;18.73;4.75;;;;;;;;;;5061347;28;20029;-83
2022/01/31 00:08:23;;;;;;;10.15;2.95;;;;;;;;;;5058577;28;20036;-82
2022/01/31 00:10:49;;;;;;;16.42;3.33;;;;;;;;;;5056523;28;20025;-81
2022/01/31 00:13:20;;;;;;;11.30;3.63;;;;;;;;;;5054010;28;20031;-82
2022/01/31 00:15:53;;;;;;;15.10;5.43;;;;;;;;;;5055310;28;20025;-83
2022/01/31 00:18:18;;;;;;;9.05;4.07;;;;;;;;;;5054814;28;20037;-81
2022/01/31 00:20:44;;;;;;;18.25;4.53;;;;;;;;;;5053645;28;20044;-82
2022/01/31 00:23:09;;;;;;;11.57;3.33;;;;;;;;;;5058687;28;20032;-83
2022/01/31 00:25:35;;;;;;;7.97;2.22;;;;;;;;;;5055214;28;20114;-82
2022/01/31 00:28:00;;;;;;;13.10;3.75;;;;;;;;;;5054342;28;20016;-83
2022/01/31 00:30:26;;;;;;;10.50;2.50;;;;;;;;;;5053642;28;20465;-81
2022/01/31 00:32:51;;;;;;;11.15;3.42;;;;;;;;;;5057160;28;20048;-81
2022/01/31 00:35:17;;;;;;;6.55;2.55;;;;;;;;;;5056874;28;20024;-81
2022/01/31 00:37:42;;;;;;;21.75;3.72;;;;;;;;;;5054302;28;20072;-81
2022/01/31 00:40:09;;;;;;;9.43;3.22;;;;;;;;;;5058000;28;20027;-80
2022/01/31 00:42:35;;;;;;;8.45;3.13;;;;;;;;;;5056974;28;20065;-81
2022/01/31 00:45:19;;;;;;;11.60;3.47;;;;;;;;;;5066824;28;20468;-82
2022/01/31 00:47:48;;;;;;;17.00;4.00;;;;;;;;;;5064456;28;20021;-80
2022/01/31 00:50:17;;;;;;;13.40;3.47;;;;;;;;;;5054482;28;20025;-81
2022/01/31 00:52:44;;;;;;;7.30;2.80;;;;;;;;;;5055015;28;20113;-80
2022/01/31 00:55:11;;;;;;;15.25;4.03;;;;;;;;;;5053926;28;20491;-82
2022/01/31 00:57:37;;;;;;;13.77;4.18;;;;;;;;;;5055562;28;20071;-80
2022/01/31 01:00:05;;;;;;;6.35;3.80;;;;;;;;;;5051875;28;20064;-81
2022/01/31 01:02:31;;;;;;;7.15;2.75;;;;;;;;;;5054307;28;20043;-80
2022/01/31 01:04:56;;;;;;;5.93;2.33;;;;;;;;;;5056410;28;20108;-83
2022/01/31 01:07:22;;;;;;;5.53;3.15;;;;;;;;;;5056961;28;20350;-80
2022/01/31 01:09:48;;;;;;;9.32;3.33;;;;;;;;;;5055016;28;20032;-83
2022/01/31 01:12:15;;;;;;;19.35;3.83;;;;;;;;;;5056025;28;20039;-81
2022/01/31 01:14:42;;;;;;;20.15;4.03;;;;;;;;;;5055348;28;20104;-82
2022/01/31 01:17:08;;;;;;;13.68;2.50;;;;;;;;;;5052575;28;20049;-84
2022/01/31 01:19:34;;;;;;;13.88;3.22;;;;;;;;;;5057590;28;20120;-82
2022/01/31 01:21:59;;;;;;;8.88;3.15;;;;;;;;;;5054605;28;20029;-80
2022/01/31 01:24:25;;;;;;;12.15;2.55;;;;;;;;;;5053315;28;20468;-83
2022/01/31 01:26:50;;;;;;;12.02;3.80;;;;;;;;;;5052888;28;20028;-83
2022/01/31 01:29:17;;;;;;;7.80;4.65;;;;;;;;;;5053698;28;20048;-81
2022/01/31 01:31:47;;;;;;;10.70;4.40;;;;;;;;;;5059291;28;20492;-85
2022/01/31 01:34:13;;;;;;;14.48;3.75;;;;;;;;;;5054549;28;20032;-81
2022/01/31 01:36:38;;;;;;;10.02;3.53;;;;;;;;;;5053961;28;20055;-83
2022/01/31 01:39:07;;;;;;;12.65;3.13;;;;;;;;;;5051171;28;20025;-80
2022/01/31 01:41:32;;;;;;;9.63;2.28;;;;;;;;;;5053771;28;20036;-82
2022/01/31 01:43:58;;;;;;;10.18;3.33;;;;;;;;;;5053194;28;20025;-83
2022/01/31 01:46:24;;;;;;;13.07;3.95;;;;;;;;;;5051076;28;20048;-82
2022/01/31 01:48:49;;;;;;;7.60;3.15;;;;;;;;;;5052702;28;20025;-83
2022/01/31 01:51:15;;;;;;;7.13;3.22;;;;;;;;;;5056774;28;20021;-80
2022/01/31 01:53:41;;;;;;;4.32;2.35;;;;;;;;;;5052272;28;20358;-83
2022/01/31 01:56:07;;;;;;;6.43;2.38;;;;;;;;;;5054866;28;20029;-81
2022/01/31 01:58:41;;;;;;;8.57;3.33;;;;;;;;;;5053548;28;20072;-81
2022/01/31 02:01:08;;;;;;;7.85;2.53;;;;;;;;;;5053132;28;20099;-82
2022/01/31 02:03:36;;;;;;;9.65;3.05;;;;;;;;;;5054029;28;20029;-81
2022/01/31 02:06:06;;;;;;;11.75;3.28;;;;;;;;;;5051649;28;20124;-82
2022/01/31 02:08:43;;;;;;;10.02;2.38;;;;;;;;;;5051129;28;20472;-82
2022/01/31 02:11:12;;;;;;;8.05;2.25;;;;;;;;;;5051524;28;20025;-82
2022/01/31 02:13:38;;;;;;;5.63;2.50;;;;;;;;;;5053239;28;20028;-82
2022/01/31 02:16:05;;;;;;;7.55;2.63;;;;;;;;;;5054852;28;20025;-82
2022/01/31 02:18:31;;;;;;;6.53;2.20;;;;;;;;;;5056757;28;20052;-82
2022/01/31 02:20:58;;;;;;;6.13;2.10;;;;;;;;;;5051919;28;20029;-82
2022/01/31 02:23:23;;;;;;;7.18;2.13;;;;;;;;;;5051948;28;20111;-82
2022/01/31 02:26:03;;;;;;;6.43;2.42;;;;;;;;;;5052510;28;20099;-83
2022/01/31 02:28:31;;;;;;;9.60;3.33;;;;;;;;;;5053172;28;20487;-81
2022/01/31 02:30:57;;;;;;;10.85;2.70;;;;;;;;;;5051868;28;20370;-81
2022/01/31 02:33:23;;;;;;;4.80;2.33;;;;;;;;;;5054951;28;20043;-80
2022/01/31 02:35:53;;;;;;;7.90;2.22;;;;;;;;;;5050672;28;20051;-81
2022/01/31 02:38:19;;;;;;;;;;;;;;;;;;5053929;28;20473;-82
2022/01/31 02:40:48;;;;;;;5.18;1.90;;;;;;;;;;5052146;28;19919;-81
2022/01/31 02:43:21;;;;;;;4.93;1.67;;;;;;;;;;5051368;28;20036;-81
2022/01/31 02:45:46;;;;;;;8.45;2.15;;;;;;;;;;5055459;28;20016;-81
2022/01/31 02:48:14;;;;;;;5.95;2.03;;;;;;;;;;5053789;28;20490;-80
2022/01/31 02:50:40;;;;;;;14.02;3.30;;;;;;;;;;5049821;28;20103;-80
2022/01/31 02:55:51;;;;;;;12.00;3.17;;;;;;;;;;5051403;28;20044;-82
2022/01/31 02:58:18;;;;;;;13.10;2.85;;;;;;;;;;5049131;28;20042;-83
2022/01/31 03:00:44;;;;;;;5.45;1.85;;;;;;;;;;5052288;28;20039;-82
2022/01/31 03:03:10;;;;;;;12.50;2.08;;;;;;;;;;5052413;28;20029;-84
2022/01/31 03:05:36;;;;;;;3.08;1.90;;;;;;;;;;5050991;28;20032;-84
2022/01/31 03:08:03;;;;;;;8.63;3.20;;;;;;;;;;5051679;28;20020;-83
2022/01/31 03:10:28;;;;;;;7.88;2.53;;;;;;;;;;5054809;28;20370;-83
2022/01/31 03:12:54;;;;;;;10.20;2.50;;;;;;;;;;5051761;28;20029;-84
2022/01/31 03:15:19;;;;;;;7.15;2.28;;;;;;;;;;5051733;28;20021;-83
2022/01/31 03:17:49;;;;;;;7.30;2.40;;;;;;;;;;5050631;28;20045;-84
2022/01/31 03:20:18;;;;;;;7.45;2.20;;;;;;;;;;5049882;28;20029;-83
2022/01/31 03:22:43;;;;;;;2.72;2.08;;;;;;;;;;5053871;28;20519;-83
2022/01/31 03:25:09;;;;;;;4.30;1.95;;;;;;;;;;5056190;28;20024;-82
2022/01/31 03:27:34;;;;;;;9.65;3.03;;;;;;;;;;5058678;28;20043;-81
2022/01/31 03:30:00;;;;;;;12.88;2.88;;;;;;;;;;5055949;28;20477;-84
2022/01/31 03:32:25;;;;;;;3.05;1.67;;;;;;;;;;5056902;28;20044;-83
2022/01/31 03:34:51;;;;;;;7.32;2.50;;;;;;;;;;5054077;28;20056;-81
2022/01/31 03:37:16;;;;;;;6.00;2.30;;;;;;;;;;5054447;28;20032;-82
2022/01/31 03:39:42;;;;;;;9.20;2.25;;;;;;;;;;5057675;28;20067;-82
2022/01/31 03:42:07;;;;;;;7.75;2.42;;;;;;;;;;5055055;28;20074;-81
2022/01/31 03:44:33;;;;;;;11.85;3.03;;;;;;;;;;5055884;28;20102;-82
2022/01/31 03:46:59;;;;;;;8.23;2.55;;;;;;;;;;5056413;28;20094;-83
2022/01/31 03:49:25;;;;;;;8.07;2.42;;;;;;;;;;5054976;28;20465;-83
2022/01/31 03:51:50;;;;;;;7.05;2.58;;;;;;;;;;5055444;28;20021;-82
2022/01/31 03:54:16;;;;;;;8.48;3.35;;;;;;;;;;5056122;28;20021;-82
2022/01/31 03:56:42;;;;;;;6.15;2.42;;;;;;;;;;5056465;28;20379;-82
2022/01/31 03:59:08;;;;;;;7.88;2.15;;;;;;;;;;5055948;28;20130;-81
2022/01/31 04:01:34;;;;;;;10.48;2.60;;;;;;;;;;5055641;28;20465;-81
2022/01/31 04:03:59;;;;;;;8.10;1.75;;;;;;;;;;5052971;28;20096;-82
2022/01/31 04:06:25;;;;;;;6.97;2.00;;;;;;;;;;5056832;28;20503;-82
2022/01/31 04:08:51;;;;;;;16.88;5.40;;;;;;;;;;5054287;28;20031;-81
2022/01/31 04:11:16;;;;;;;20.17;9.00;;;;;;;;;;5055441;28;20035;-81
2022/01/31 04:13:42;;;;;;;8.15;3.10;;;;;;;;;;5060278;28;20115;-83
2022/01/31 04:16:07;;;;;;;8.05;3.08;;;;;;;;;;5052755;28;20020;-81
2022/01/31 04:18:33;;;;;;;11.55;2.47;;;;;;;;;;5054197;28;20057;-83
2022/01/31 04:20:59;;;;;;;7.10;2.45;;;;;;;;;;5055305;28;20033;-81
2022/01/31 04:23:27;;;;;;;4.32;1.52;;;;;;;;;;5053957;28;20416;-82
2022/01/31 04:25:55;;;;;;;9.65;2.35;;;;;;;;;;5055662;28;20028;-83
2022/01/31 04:30:59;;;;;;;4.38;2.35;;;;;;;;;;5060103;28;20637;-81
2022/01/31 04:33:27;;;;;;;10.18;2.58;;;;;;;;;;5054563;28;20025;-81
2022/01/31 04:35:53;;;;;;;7.05;1.88;;;;;;;;;;5052160;28;20025;-82
2022/01/31 04:38:20;;;;;;;2.65;1.67;;;;;;;;;;5054327;28;20025;-83
2022/01/31 04:40:45;;;;;;;3.47;1.95;;;;;;;;;;5056358;28;20112;-82
2022/01/31 04:43:11;;;;;;;4.95;2.15;;;;;;;;;;5055723;28;20111;-81
2022/01/31 04:45:37;;;;;;;5.65;1.83;;;;;;;;;;5058445;28;20036;-82
2022/01/31 04:48:03;;;;;;;4.72;1.90;;;;;;;;;;5055184;28;20365;-82
2022/01/31 04:50:28;;;;;;;8.45;2.75;;;;;;;;;;5053518;28;20033;-81
2022/01/31 04:52:54;;;;;;;3.05;2.03;;;;;;;;;;5072562;28;20028;-83
2022/01/31 04:55:21;;;;;;;11.13;3.05;;;;;;;;;;5052896;28;20036;-82
2022/01/31 04:57:47;;;;;;;7.28;2.70;;;;;;;;;;5056170;28;20037;-83
2022/01/31 05:00:13;;;;;;;7.05;2.13;;;;;;;;;;5053412;28;20039;-82
2022/01/31 05:02:38;;;;;;;6.57;1.92;;;;;;;;;;5054539;28;20040;-81
2022/01/31 05:05:04;;;;;;;9.48;2.08;;;;;;;;;;5051780;28;20025;-82
2022/01/31 05:07:30;;;;;;;8.85;2.13;;;;;;;;;;5053735;28;20017;-82
2022/01/31 05:09:55;;;;;;;7.93;2.17;;;;;;;;;;5053498;28;20463;-82
2022/01/31 05:12:21;;;;;;;4.72;2.13;;;;;;;;;;5055034;28;20017;-82
2022/01/31 05:14:46;;;;;;;7.22;2.88;;;;;;;;;;5053209;28;20029;-81
2022/01/31 05:17:12;;;;;;;8.65;2.78;;;;;;;;;;5053643;28;20053;-80
2022/01/31 05:19:37;;;;;;;9.55;3.33;;;;;;;;;;5054247;28;20039;-81
2022/01/31 05:22:03;;;;;;;7.18;2.47;;;;;;;;;;5054938;28;20040;-81
2022/01/31 05:24:29;;;;;;;6.93;2.38;;;;;;;;;;5054954;28;20013;-81
2022/01/31 05:26:54;;;;;;;8.38;2.80;;;;;;;;;;5054801;28;20096;-84
2022/01/31 05:29:21;;;;;;;12.73;3.17;;;;;;;;;;5053026;28;20116;-80
2022/01/31 05:31:48;;;;;;;9.05;2.67;;;;;;;;;;5053392;28;20067;-82
2022/01/31 05:34:15;;;;;;;5.93;2.45;;;;;;;;;;5052882;28;20028;-81
2022/01/31 05:36:40;;;;;;;4.07;2.13;;;;;;;;;;5051493;28;20025;-81
2022/01/31 05:39:06;;;;;;;3.20;2.03;;;;;;;;;;5052622;28;20024;-82
2022/01/31 05:41:32;;;;;;;11.68;2.42;;;;;;;;;;5057193;28;20079;-82
2022/01/31 05:43:57;;;;;;;4.65;2.63;;;;;;;;;;5054737;28;20032;-81
2022/01/31 05:46:23;;;;;;;4.53;1.70;;;;;;;;;;5055380;28;20032;-80
2022/01/31 05:48:48;;;;;;;4.78;1.70;;;;;;;;;;5055439;28;20482;-82
2022/01/31 05:51:17;;;;;;;6.43;1.58;;;;;;;;;;5052325;28;20024;-82
2022/01/31 05:53:44;;;;;;;3.08;2.05;;;;;;;;;;5051394;28;20429;-80
2022/01/31 05:56:11;;;;;;;5.90;2.42;;;;;;;;;;5054928;28;20021;-82
2022/01/31 05:58:37;;;;;;;7.85;3.90;;;;;;;;;;5051941;28;20028;-83
2022/01/31 06:01:03;;;;;;;5.88;2.67;;;;;;;;;;5054679;28;20411;-82
2022/01/31 06:03:28;;;;;;;4.88;2.33;;;;;;;;;;5052120;28;20051;-80
2022/01/31 06:05:54;;;;;;;5.32;2.17;;;;;;;;;;5052032;28;20029;-80
2022/01/31 06:08:19;;;;;;;7.13;2.63;;;;;;;;;;5059440;28;20025;-81
2022/01/31 06:10:48;;;;;;;4.43;2.20;;;;;;;;;;5060184;28;20024;-81
2022/01/31 06:13:15;;;;;;;4.68;1.70;;;;;;;;;;5060516;28;20068;-81
2022/01/31 06:15:41;;;;;;;5.72;1.92;;;;;;;;;;5053052;28;20053;-84
2022/01/31 06:18:06;;;;;;;6.57;2.20;;;;;;;;;;5056460;28;20447;-81
2022/01/31 06:20:32;;;;;;;4.22;1.30;;;;;;;;;;5055269;28;20060;-83
2022/01/31 06:22:59;;;;;;;5.40;2.20;;;;;;;;;;5053429;28;20484;-83
2022/01/31 06:25:24;;;;;;;10.95;2.00;;;;;;;;;;5055838;28;20028;-81
2022/01/31 06:27:51;;;;;;;7.47;2.90;;;;;;;;;;5052244;28;20023;-82
2022/01/31 06:30:17;;;;;;;4.03;1.95;;;;;;;;;;5052720;28;20036;-81
2022/01/31 06:32:42;;;;;;;6.40;1.95;;;;;;;;;;5053117;28;20036;-81
2022/01/31 06:35:09;;;;;;;4.13;1.85;;;;;;;;;;5053972;28;20033;-82
2022/01/31 06:37:36;;;;;;;4.22;1.88;;;;;;;;;;5053240;28;20706;-82
2022/01/31 06:40:04;;;;;;;4.28;2.50;;;;;;;;;;5050394;28;20075;-83
2022/01/31 06:42:36;;;;;;;9.32;2.58;;;;;;;;;;5051702;28;20032;-81
2022/01/31 06:45:02;;;;;;;5.40;1.95;;;;;;;;;;5052186;28;20541;-80
2022/01/31 06:47:28;;;;;;;6.38;2.38;;;;;;;;;;5050639;28;20029;-82
2022/01/31 06:49:54;;;;;;;8.10;3.53;;;;;;;;;;5054470;28;20559;-82
2022/01/31 06:52:19;;;;;;;3.72;1.67;;;;;;;;;;5053590;28;20060;-83
2022/01/31 06:54:49;;;;;;;12.00;2.40;;;;;;;;;;5052553;28;20044;-82
2022/01/31 06:57:15;;;;;;;;;;;;;;;;;;5054099;28;20040;-82
2022/01/31 06:59:40;;;;;;;3.35;1.40;;;;;;;;;;5057577;28;20005;-84
2022/01/31 07:02:07;;;;;;;3.92;1.75;;;;;;;;;;5057764;28;20734;-82
2022/01/31 07:04:32;;;;;;;2.70;1.38;;;;;;;;;;5056158;28;20028;-81
2022/01/31 07:06:59;;;;;;;5.30;2.42;;;;;;;;;;5054228;28;20575;-81
2022/01/31 07:09:25;;;;;;;5.10;2.50;;;;;;;;;;5056454;28;20409;-81
2022/01/31 07:11:52;;;;;;;9.45;2.38;;;;;;;;;;5055156;28;20033;-82
2022/01/31 07:14:51;;;;;;;8.30;1.80;;;;;;;;;;5056111;28;20092;-81
2022/01/31 07:17:10;;;;;;;5.15;2.92;;;;;;;;;;5052359;28;20125;-80
2022/01/31 07:19:39;;;;;;;3.85;2.33;;;;;;;;;;5059923;28;20067;-80
2022/01/31 07:22:09;;;;;;;7.28;3.15;;;;;;;;;;5050390;28;20103;-81
2022/01/31 07:27:04;;;;;;;4.13;2.42;;;;;;;;;;5056691;28;20008;-80
2022/01/31 07:29:31;;;;;;;7.45;1.92;;;;;;;;;;5057699;28;20393;-81
2022/01/31 07:31:58;;;;;;;7.20;2.45;;;;;;;;;;5057113;28;20032;-82
2022/01/31 07:34:24;;;;;;;3.65;1.80;;;;;;;;;;5059440;28;20032;-82
2022/01/31 07:36:51;;;;;;;6.50;2.60;;;;;;;;;;5056449;28;20107;-81
2022/01/31 07:39:17;;;;;;;2.80;1.45;;;;;;;;;;5059506;28;20060;-82
2022/01/31 07:41:43;;;;;;;4.45;1.65;;;;;;;;;;5066030;28;20534;-81
2022/01/31 07:44:09;;;;;;;3.70;1.30;;;;;;;;;;5058183;28;20093;-81
2022/01/31 07:46:35;;;;;;;6.07;1.25;;;;;;;;;;5047451;28;20059;-81
2022/01/31 07:49:01;;;;;;;4.68;2.10;;;;;;;;;;5058579;28;20446;-81
2022/01/31 07:51:27;;;;;;;4.20;1.58;;;;;;;;;;5048619;28;20035;-81
2022/01/31 07:53:52;;;;;;;4.75;1.38;;;;;;;;;;5066146;28;20021;-78
2022/01/31 07:56:18;;;;;;;4.72;2.15;;;;;;;;;;5056110;28;20103;-80
2022/01/31 07:58:44;;;;;;;4.75;1.55;;;;;;;;;;5050958;28;20029;-84
2022/01/31 08:01:10;;;;;;;4.78;1.70;;;;;;;;;;5070388;28;20033;-79
2022/01/31 08:03:36;;;;;;;1.98;0.98;;;;;;;;;;5050455;28;20104;-78
2022/01/31 08:06:03;;;;;;;3.95;1.35;;;;;;;;;;5055639;28;20029;-79
2022/01/31 08:08:29;;;;;;;3.67;1.77;;;;;;;;;;5055410;28;20083;-79
2022/01/31 08:10:56;;;;;;;3.40;1.48;;;;;;;;;;5053548;28;20048;-80
2022/01/31 08:13:24;;;;;;;4.75;1.58;;;;;;;;;;5054376;28;20029;-79
2022/01/31 08:16:03;;;;;;;5.45;2.25;;;;;;;;;;5055089;28;20429;-79
2022/01/31 08:18:29;;;;;;;3.35;1.35;;;;;;;;;;5054129;28;20081;-79
2022/01/31 08:20:55;;;;;;;4.60;1.83;;;;;;;;;;5055299;28;20128;-77
2022/01/31 08:23:20;;;;;;;5.13;2.40;;;;;;;;;;5054736;28;20104;-79
2022/01/31 08:25:50;;;;;;;2.72;1.33;;;;;;;;;;5058685;28;20024;-78
2022/01/31 08:28:18;;;;;;;5.45;1.65;;;;;;;;;;5055618;28;20422;-80
2022/01/31 08:30:58;;;;;;;4.63;1.50;;;;;;;;;;5054974;28;20128;-78
2022/01/31 08:33:36;;;;;;;;;;;;;;;;;;5054609;28;20401;-80
2022/01/31 08:36:04;;;;;;;3.13;1.77;;;;;;;;;;5052385;28;20347;-80
2022/01/31 08:38:30;;;;;;;2.25;1.52;;;;;;;;;;5053966;28;20021;-80
2022/01/31 08:40:57;;;;;;;3.90;1.20;;;;;;;;;;5053936;28;20029;-81
2022/01/31 08:43:24;;;;;;;4.68;1.50;;;;;;;;;;5058199;28;20021;-80
2022/01/31 08:45:50;;;;;;;3.20;1.95;;;;;;;;;;5054434;28;20037;-79
2022/01/31 08:48:16;;;;;;;7.80;2.50;;;;;;;;;;5055867;28;20020;-79
2022/01/31 08:50:42;;;;;;;6.05;2.10;;;;;;;;;;5054529;28;20044;-82
2022/01/31 08:53:07;;;;;;;9.60;3.92;;;;;;;;;;5053105;28;20031;-81
2022/01/31 08:55:35;;;;;;;19.55;6.93;;;;;;;;;;5059844;28;20013;-79
2022/01/31 08:58:00;;;;;;;2.78;1.58;;;;;;;;;;5053800;28;20044;-78
2022/01/31 09:00:33;;;;;;;4.55;1.90;;;;;;;;;;5056823;28;20040;-79
2022/01/31 09:05:36;;;;;;;8.63;2.67;;;;;;;;;;5055291;28;20111;-78
2022/01/31 09:08:01;;;;;;;2.53;1.40;;;;;;;;;;5055352;28;20435;-79
2022/01/31 09:10:27;;;;;;;3.88;1.50;;;;;;;;;;5056890;28;20116;-79
2022/01/31 09:12:52;;;;;;;7.30;2.17;;;;;;;;;;5054648;28;20029;-79
2022/01/31 09:15:18;;;;;;;2.47;1.00;;;;;;;;;;5070668;28;20435;-80
2022/01/31 09:17:44;;;;;;;5.53;1.65;;;;;;;;;;5051204;28;20059;-79
2022/01/31 09:20:10;;;;;;;37.38;17.90;;;;;;;;;;5055562;28;20032;-79
2022/01/31 09:22:35;;;;;;;24.63;10.05;;;;;;;;;;5052394;28;20560;-79
2022/01/31 09:25:01;;;;;;;5.57;1.85;;;;;;;;;;5052230;28;20112;-80
2022/01/31 09:27:28;;;;;;;6.35;1.83;;;;;;;;;;5051144;28;20056;-80
2022/01/31 09:29:54;;;;;;;3.10;1.55;;;;;;;;;;5055786;28;20053;-80
2022/01/31 09:32:23;;;;;;;10.20;2.90;;;;;;;;;;5055528;28;20071;-79
2022/01/31 09:34:49;;;;;;;5.95;2.25;;;;;;;;;;5052501;28;20025;-78
2022/01/31 09:37:15;;;;;;;13.32;2.88;;;;;;;;;;5054927;28;20538;-79
2022/01/31 09:39:43;;;;;;;4.53;1.80;;;;;;;;;;5051616;28;20021;-80
2022/01/31 09:42:12;;;;;;;3.53;1.50;;;;;;;;;;5052829;28;20025;-79
2022/01/31 09:45:04;;;;;;;9.40;2.90;;;;;;;;;;5054175;28;20044;-78
2022/01/31 09:50:14;;;;;;;7.70;1.30;;;;;;;;;;5053657;28;20511;-79
2022/01/31 09:52:39;;;;;;;4.15;1.23;;;;;;;;;;5053467;28;20025;-77
2022/01/31 09:55:07;;;;;;;5.15;1.83;;;;;;;;;;5054975;28;20098;-78
2022/01/31 09:57:33;;;;;;;6.15;1.73;;;;;;;;;;5054753;28;20365;-79
2022/01/31 09:59:58;;;;;;;4.80;1.63;;;;;;;;;;5053439;28;20111;-79
2022/01/31 10:02:24;;;;;;;4.85;1.60;;;;;;;;;;5054674;28;20469;-79
2022/01/31 10:04:49;;;;;;;6.57;2.15;;;;;;;;;;5052776;28;20029;-78
2022/01/31 10:07:16;;;;;;;4.80;1.90;;;;;;;;;;5053472;28;20097;-79
2022/01/31 10:09:46;;;;;;;6.22;2.72;;;;;;;;;;5056552;28;20123;-79
2022/01/31 10:17:44;;;;;;;2.22;1.40;;;;;;;;;;5051278;28;20102;-78
2022/01/31 10:20:17;;;;;;;5.07;2.20;;;;;;;;;;5053741;28;20028;-78
2022/01/31 10:22:43;;;;;;;6.53;2.00;;;;;;;;;;5059113;28;20043;-79
2022/01/31 10:25:17;;;;;;;11.38;5.45;;;;;;;;;;5051459;28;20035;-77
2022/01/31 10:27:47;;;;;;;3.38;1.60;;;;;;;;;;5051378;28;20063;-78
2022/01/31 10:30:25;;;;;;;4.50;2.10;;;;;;;;;;5051475;28;20036;-78
2022/01/31 10:32:53;;;;;;;3.08;1.90;;;;;;;;;;5050908;28;20059;-79
2022/01/31 10:35:24;;;;;;;4.70;1.65;;;;;;;;;;5048598;28;20020;-79
2022/01/31 10:37:55;;;;;;;4.82;1.77;;;;;;;;;;5050581;28;20396;-77
2022/01/31 10:43:35;;;;;;;3.15;1.65;;;;;;;;;;5057316;28;20091;-78
2022/01/31 10:56:55;;;;;;;4.30;1.70;;;;;;;;;;5054374;28;20431;-84
2022/01/31 10:59:23;;;;;;;8.10;2.45;;;;;;;;;;5057054;28;20020;-81
2022/01/31 11:01:52;;;;;;;11.00;3.70;;;;;;;;;;5050192;28;20024;-78
2022/01/31 11:04:18;;;;;;;4.30;1.88;;;;;;;;;;5051316;28;20037;-79
2022/01/31 11:06:46;;;;;;;4.95;1.70;;;;;;;;;;5051013;28;20040;-80
2022/01/31 11:09:16;;;;;;;5.47;2.10;;;;;;;;;;5054549;28;20029;-79
2022/01/31 11:11:44;;;;;;;6.68;2.40;;;;;;;;;;5052192;28;20024;-80
2022/01/31 11:14:12;;;;;;;6.10;2.17;;;;;;;;;;5051046;28;20052;-78
2022/01/31 11:16:40;;;;;;;5.03;1.60;;;;;;;;;;5056880;28;20093;-81
2022/01/31 11:19:08;;;;;;;1.85;1.20;;;;;;;;;;5053707;28;20016;-81
2022/01/31 11:21:44;;;;;;;4.55;1.48;;;;;;;;;;5050744;28;20185;-80
2022/01/31 11:24:19;;;;;;;7.28;1.63;;;;;;;;;;5056502;28;20103;-77
2022/01/31 11:26:56;;;;;;;3.70;1.50;;;;;;;;;;5053670;28;20037;-81
2022/01/31 11:29:22;;;;;;;3.15;1.52;;;;;;;;;;5051230;28;20017;-81
2022/01/31 11:31:48;;;;;;;2.83;1.23;;;;;;;;;;5054439;28;20024;-81
2022/01/31 11:34:14;;;;;;;6.97;1.60;;;;;;;;;;5054730;28;20067;-86
2022/01/31 11:36:41;;;;;;;4.15;1.17;;;;;;;;;;5053689;28;20033;-85
2022/01/31 11:39:13;;;;;;;8.95;1.27;;;;;;;;;;5049313;28;20052;-82
2022/01/31 11:41:50;;;;;;;4.78;1.45;;;;;;;;;;5052870;28;20054;-78
2022/01/31 11:44:15;;;;;;;2.78;0.80;;;;;;;;;;5062243;28;20463;-78
2022/01/31 11:46:41;;;;;;;2.05;1.20;;;;;;;;;;5057696;28;20029;-79
2022/01/31 11:49:13;;;;;;;4.05;0.85;;;;;;;;;;5054385;28;20039;-78
2022/01/31 11:52:05;;;;;;;5.80;2.33;;;;;;;;;;5055726;28;20027;-79
2022/01/31 11:54:31;;;;;;;7.13;1.35;;;;;;;;;;5053608;28;20060;-78
2022/01/31 11:56:56;;;;;;;2.45;1.10;;;;;;;;;;5053540;28;20049;-78
2022/01/31 11:59:24;;;;;;;4.25;1.58;;;;;;;;;;5054201;28;20026;-77
2022/01/31 12:01:58;;;;;;;5.18;1.65;;;;;;;;;;5055848;28;20071;-78
2022/01/31 12:04:31;;;;;;;6.35;3.60;;;;;;;;;;5054958;28;20028;-79
2022/01/31 12:06:56;;;;;;;3.08;1.45;;;;;;;;;;5057017;28;20036;-78
2022/01/31 12:09:25;;;;;;;7.90;1.15;;;;;;;;;;5054394;28;20021;-79
2022/01/31 12:12:05;;;;;;;1.53;0.80;;;;;;;;;;5054141;28;20100;-78
2022/01/31 12:14:46;;;;;;;3.92;2.20;;;;;;;;;;5056355;28;20403;-78
2022/01/31 12:17:39;;;;;;;2.85;1.40;;;;;;;;;;5053977;28;20052;-77
2022/01/31 12:20:14;;;;;;;8.98;4.40;;;;;;;;;;5054352;28;20045;-78
2022/01/31 12:22:51;;;;;;;2.45;1.00;;;;;;;;;;5050796;28;20029;-78
2022/01/31 12:25:30;;;;;;;2.55;1.30;;;;;;;;;;5049880;28;20465;-78
2022/01/31 12:27:57;;;;;;;4.47;1.15;;;;;;;;;;5052636;28;20032;-78
2022/01/31 12:30:34;;;;;;;2.38;1.10;;;;;;;;;;5054329;28;20033;-79
2022/01/31 12:33:00;;;;;;;4.95;2.25;;;;;;;;;;5070181;28;20480;-78
2022/01/31 12:35:37;;;;;;;2.25;1.15;;;;;;;;;;5053355;28;20025;-80
2022/01/31 12:38:05;;;;;;;5.80;1.60;;;;;;;;;;5053765;28;20096;-79
2022/01/31 12:40:39;;;;;;;5.03;1.55;;;;;;;;;;5051896;28;20094;-78
2022/01/31 12:45:39;;;;;;;3.42;2.00;;;;;;;;;;5052858;28;20036;-78
2022/01/31 12:48:12;;;;;;;3.78;2.60;;;;;;;;;;5055130;28;20029;-78
2022/01/31 12:50:53;;;;;;;6.88;1.65;;;;;;;;;;5052700;28;20028;-79
2022/01/31 12:53:45;;;;;;;5.90;1.83;;;;;;;;;;5053504;28;20357;-79
2022/01/31 12:56:26;;;;;;;4.57;1.58;;;;;;;;;;5056663;28;20069;-79
2022/01/31 12:59:09;;;;;;;3.78;1.75;;;;;;;;;;5052643;28;20025;-80
2022/01/31 13:01:41;;;;;;;3.95;1.50;;;;;;;;;;5052990;28;20059;-79
2022/01/31 13:04:10;;;;;;;7.63;2.03;;;;;;;;;;5053377;28;20017;-79
2022/01/31 13:06:43;;;;;;;6.53;2.13;;;;;;;;;;5052860;28;20047;-78
2022/01/31 13:09:21;;;;;;;4.95;2.20;;;;;;;;;;5054354;28;20025;-79
2022/01/31 13:11:51;;;;;;;7.80;2.17;;;;;;;;;;5057303;28;20111;-80
2022/01/31 13:14:26;;;;;;;4.00;1.88;;;;;;;;;;5054956;28;20028;-80
2022/01/31 13:17:12;;;;;;;4.32;1.85;;;;;;;;;;5049841;28;20029;-79
2022/01/31 13:19:42;;;;;;;6.18;2.00;;;;;;;;;;5051309;28;20032;-80
2022/01/31 13:22:12;;;;;;;6.57;1.83;;;;;;;;;;5051325;28;20380;-78
2022/01/31 13:24:48;;;;;;;;;;;;;;;;;;5053902;28;20094;-78
2022/01/31 13:27:18;;;;;;;5.30;1.50;;;;;;;;;;5052624;28;19950;-78
2022/01/31 13:29:51;;;;;;;;;;;;;;;;;;5054509;28;20148;-79
2022/01/31 13:32:30;;;;;;;5.65;1.45;;;;;;;;;;5052221;28;19952;-78
2022/01/31 13:35:04;;;;;;;4.53;1.90;;;;;;;;;;5050420;28;20053;-80
2022/01/31 13:37:36;;;;;;;4.18;1.50;;;;;;;;;;5052260;28;20029;-79
2022/01/31 13:40:12;;;;;;;8.00;1.73;;;;;;;;;;5057918;28;20029;-80
2022/01/31 13:42:39;;;;;;;6.32;1.83;;;;;;;;;;5052420;28;20021;-78
2022/01/31 13:45:14;;;;;;;4.13;1.58;;;;;;;;;;5052632;28;20037;-78
2022/01/31 13:50:27;;;;;;;6.15;2.22;;;;;;;;;;5054999;28;20021;-79
2022/01/31 13:52:57;;;;;;;4.32;1.98;;;;;;;;;;5050711;28;20052;-80
2022/01/31 13:55:23;;;;;;;4.78;2.35;;;;;;;;;;5054161;28;20115;-78
2022/01/31 13:57:49;;;;;;;6.10;1.40;;;;;;;;;;5051904;28;20075;-78
2022/01/31 14:00:16;;;;;;;5.78;1.95;;;;;;;;;;5052885;28;20021;-78
2022/01/31 14:02:41;;;;;;;4.60;1.63;;;;;;;;;;5052520;28;20504;-80
2022/01/31 14:05:20;;;;;;;5.43;1.60;;;;;;;;;;5050488;28;20055;-78
2022/01/31 14:07:57;;;;;;;5.87;2.17;;;;;;;;;;5050412;28;20400;-77
2022/01/31 14:10:24;;;;;;;3.95;1.65;;;;;;;;;;5051222;28;20025;-79
2022/01/31 14:12:58;;;;;;;5.03;1.80;;;;;;;;;;5053960;28;20041;-78
2022/01/31 14:15:23;;;;;;;6.85;2.60;;;;;;;;;;5049833;28;20393;-79
2022/01/31 14:17:50;;;;;;;5.32;2.25;;;;;;;;;;5051848;28;20041;-80
2022/01/31 14:20:16;;;;;;;7.35;2.92;;;;;;;;;;5049990;28;20103;-79
2022/01/31 14:22:42;;;;;;;5.13;2.45;;;;;;;;;;5051660;28;20060;-79
2022/01/31 14:25:12;;;;;;;4.10;2.03;;;;;;;;;;5054159;28;20025;-78
2022/01/31 14:27:52;;;;;;;5.35;2.28;;;;;;;;;;5051504;28;20568;-78
2022/01/31 14:30:22;;;;;;;6.75;2.42;;;;;;;;;;5054830;28;20052;-80
2022/01/31 14:33:07;;;;;;;6.78;2.20;;;;;;;;;;5051798;28;20424;-79
2022/01/31 14:35:34;;;;;;;6.68;2.50;;;;;;;;;;5052578;28;20029;-80
2022/01/31 14:38:10;;;;;;;6.85;3.17;;;;;;;;;;5052581;28;20057;-81
2022/01/31 14:43:17;;;;;;;5.80;2.95;;;;;;;;;;5055101;28;20140;-80
2022/01/31 14:48:31;;;;;;;120.38;47.30;;;;;;;;;;5053190;28;20040;-80
2022/01/31 14:50:57;;;;;;;72.95;28.35;;;;;;;;;;5050941;28;20028;-79
2022/01/31 14:53:23;;;;;;;93.07;36.15;;;;;;;;;;5055883;28;20111;-78
2022/01/31 14:55:49;;;;;;;36.15;14.55;;;;;;;;;;5049193;28;20467;-80
2022/01/31 14:58:16;;;;;;;15.00;7.07;;;;;;;;;;5051657;28;20032;-79
2022/01/31 15:00:42;;;;;;;16.00;5.82;;;;;;;;;;5058029;28;20107;-79
2022/01/31 15:03:11;;;;;;;11.85;5.15;;;;;;;;;;5055914;28;20547;-80
2022/01/31 15:05:38;;;;;;;9.07;3.33;;;;;;;;;;5054617;28;20028;-79
2022/01/31 15:08:03;;;;;;;7.32;3.83;;;;;;;;;;5056099;28;20032;-82
2022/01/31 15:10:32;;;;;;;7.63;3.08;;;;;;;;;;5051560;28;20121;-79
2022/01/31 15:13:00;;;;;;;7.65;2.67;;;;;;;;;;5051130;28;20385;-78
2022/01/31 15:15:26;;;;;;;6.13;3.10;;;;;;;;;;5050229;28;20024;-81
2022/01/31 15:17:51;;;;;;;7.28;2.75;;;;;;;;;;5052151;28;20497;-80
2022/01/31 15:20:18;;;;;;;6.68;3.05;;;;;;;;;;5056739;28;20412;-79
2022/01/31 15:22:47;;;;;;;3.55;1.88;;;;;;;;;;5049949;28;20029;-82
2022/01/31 15:25:12;;;;;;;8.30;4.45;;;;;;;;;;5049993;28;20481;-80
2022/01/31 15:27:38;;;;;;;13.25;3.72;;;;;;;;;;5056338;28;20059;-79
2022/01/31 15:30:06;;;;;;;9.77;4.10;;;;;;;;;;5054129;28;20111;-79